createdAt,value
2018-12-07T00:00:17.471Z,11.80
2018-12-07T00:02:46.242Z,11.80
2018-12-07T00:05:14.590Z,11.90
2018-12-07T00:07:43.089Z,11.70
2018-12-07T00:10:11.478Z,11.70
2018-12-07T00:12:39.784Z,11.70
2018-12-07T00:15:08.362Z,11.60
2018-12-07T00:17:36.745Z,11.70
2018-12-07T00:20:06.938Z,11.80
2018-12-07T00:22:35.286Z,11.90
2018-12-07T00:25:04.418Z,11.80
2018-12-07T00:27:32.722Z,11.80
2018-12-07T00:30:01.050Z,11.90
2018-12-07T00:32:29.346Z,12.00
2018-12-07T00:34:57.654Z,11.80
2018-12-07T00:37:25.983Z,11.80
2018-12-07T00:39:54.334Z,11.90
2018-12-07T00:42:22.734Z,12.00
2018-12-07T00:44:51.043Z,12.00
2018-12-07T00:47:20.381Z,12.10
2018-12-07T00:49:48.673Z,12.20
2018-12-07T00:52:16.973Z,12.10
2018-12-07T00:54:45.299Z,12.20
2018-12-07T00:57:13.599Z,12.10
2018-12-07T00:59:41.883Z,12.10
2018-12-07T01:02:10.314Z,12.10
2018-12-07T01:04:38.702Z,12.00
2018-12-07T01:07:07.121Z,12.10
2018-12-07T01:09:35.405Z,12.10
2018-12-07T01:12:03.826Z,12.10
2018-12-07T01:14:32.136Z,12.10
2018-12-07T01:17:00.597Z,11.90
2018-12-07T01:19:28.893Z,12.00
2018-12-07T01:21:57.222Z,12.00
2018-12-07T01:24:25.578Z,11.90
2018-12-07T01:26:53.887Z,11.80
2018-12-07T01:29:22.202Z,11.80
2018-12-07T01:31:50.518Z,11.70
2018-12-07T01:34:18.822Z,11.90
2018-12-07T01:36:47.119Z,11.80
2018-12-07T01:39:15.422Z,11.90
2018-12-07T01:41:43.703Z,11.90
2018-12-07T01:44:11.989Z,11.90
2018-12-07T01:46:40.289Z,12.00
2018-12-07T01:49:08.562Z,11.80
2018-12-07T01:51:36.827Z,11.90
2018-12-07T01:54:05.469Z,12.00
2018-12-07T01:56:33.745Z,11.90
2018-12-07T01:59:02.063Z,11.90
2018-12-07T02:01:30.367Z,11.90
2018-12-07T02:03:58.670Z,11.90
2018-12-07T02:06:26.960Z,11.90
2018-12-07T02:08:55.265Z,11.80
2018-12-07T02:11:23.550Z,11.80
2018-12-07T02:13:51.881Z,11.90
2018-12-07T02:16:20.186Z,12.00
2018-12-07T02:18:48.502Z,11.90
2018-12-07T02:21:16.778Z,11.80
2018-12-07T02:23:45.073Z,11.90
2018-12-07T02:26:13.390Z,11.90
2018-12-07T02:28:41.715Z,12.00
2018-12-07T02:31:10.098Z,12.00
2018-12-07T02:33:38.426Z,12.10
2018-12-07T02:36:06.727Z,12.10
2018-12-07T02:38:35.060Z,12.20
2018-12-07T02:44:03.163Z,12.10
2018-12-07T02:46:31.460Z,12.00
2018-12-07T02:48:59.835Z,12.10
2018-12-07T02:51:28.133Z,12.10
2018-12-07T02:53:56.457Z,12.10
2018-12-07T02:56:24.793Z,12.10
2018-12-07T02:58:53.088Z,12.20
2018-12-07T03:01:21.426Z,12.20
2018-12-07T03:03:49.796Z,12.10
2018-12-07T03:06:18.103Z,12.20
2018-12-07T03:08:46.410Z,12.10
2018-12-07T03:11:14.746Z,12.00
2018-12-07T03:13:43.076Z,12.00
2018-12-07T03:16:11.472Z,12.10
2018-12-07T03:18:39.822Z,12.00
2018-12-07T03:21:08.168Z,12.10
2018-12-07T03:23:36.481Z,12.20
2018-12-07T03:26:04.814Z,12.10
2018-12-07T03:28:33.126Z,11.90
2018-12-07T03:31:01.465Z,12.00
2018-12-07T03:33:29.769Z,11.90
2018-12-07T03:35:58.191Z,11.80
2018-12-07T03:38:26.499Z,11.90
2018-12-07T03:40:54.920Z,12.00
2018-12-07T03:43:23.343Z,11.70
2018-12-07T03:45:51.664Z,11.70
2018-12-07T03:48:19.982Z,11.80
2018-12-07T03:50:48.286Z,11.80
2018-12-07T03:53:16.605Z,11.90
2018-12-07T03:55:44.919Z,11.90
2018-12-07T03:58:13.229Z,12.00
2018-12-07T04:00:41.529Z,12.00
2018-12-07T04:03:09.852Z,12.00
2018-12-07T04:05:38.155Z,12.10
2018-12-07T04:08:06.471Z,11.90
2018-12-07T04:10:34.797Z,11.90
2018-12-07T04:13:03.228Z,11.90
2018-12-07T04:15:31.638Z,11.90
2018-12-07T04:17:59.965Z,11.70
2018-12-07T04:20:28.346Z,11.80
2018-12-07T04:22:56.671Z,11.70
2018-12-07T04:25:24.981Z,11.70
2018-12-07T04:27:53.380Z,11.60
2018-12-07T04:30:25.835Z,11.60
2018-12-07T04:32:54.188Z,11.70
2018-12-07T04:35:22.593Z,11.70
2018-12-07T04:37:50.933Z,11.70
2018-12-07T04:40:19.242Z,11.80
2018-12-07T04:42:47.563Z,11.70
2018-12-07T04:45:16.185Z,11.70
2018-12-07T04:47:44.545Z,11.70
2018-12-07T04:50:19.759Z,11.70
2018-12-07T04:52:48.251Z,11.70
2018-12-07T04:55:16.569Z,11.60
2018-12-07T04:57:44.922Z,11.50
2018-12-07T05:00:13.374Z,11.60
2018-12-07T05:02:41.735Z,11.60
2018-12-07T05:05:11.195Z,11.70
2018-12-07T05:07:39.814Z,11.70
2018-12-07T05:10:08.152Z,11.70
2018-12-07T05:12:36.483Z,11.70
2018-12-07T05:15:05.808Z,11.70
2018-12-07T05:17:35.000Z,11.60
2018-12-07T05:20:04.110Z,11.70
2018-12-07T05:22:32.450Z,11.70
2018-12-07T05:25:00.795Z,11.80
2018-12-07T05:27:29.185Z,11.80
2018-12-07T05:29:57.566Z,11.70
2018-12-07T05:32:25.911Z,11.70
2018-12-07T05:34:54.222Z,11.70
2018-12-07T05:37:22.570Z,11.70
2018-12-07T05:39:50.928Z,11.70
2018-12-07T05:42:19.330Z,11.70
2018-12-07T05:44:47.666Z,11.50
2018-12-07T05:47:16.008Z,11.60
2018-12-07T05:49:44.329Z,11.60
2018-12-07T05:52:12.739Z,11.60
2018-12-07T05:54:41.065Z,11.60
2018-12-07T05:57:09.426Z,11.40
2018-12-07T05:59:37.761Z,11.30
2018-12-07T06:02:06.236Z,11.40
2018-12-07T06:04:34.549Z,11.40
2018-12-07T06:07:05.946Z,11.30
2018-12-07T06:09:44.354Z,11.50
2018-12-07T06:12:12.710Z,11.50
2018-12-07T06:14:41.138Z,11.30
2018-12-07T06:17:09.520Z,11.30
2018-12-07T06:19:37.932Z,11.40
2018-12-07T06:22:07.044Z,11.50
2018-12-07T06:24:35.744Z,11.40
2018-12-07T06:27:04.226Z,11.40
2018-12-07T06:29:32.588Z,11.60
2018-12-07T06:32:01.017Z,11.40
2018-12-07T06:34:29.359Z,11.50
2018-12-07T06:36:57.714Z,11.60
2018-12-07T06:39:26.114Z,11.50
2018-12-07T06:41:54.470Z,11.60
2018-12-07T06:44:23.845Z,11.60
2018-12-07T06:46:52.273Z,11.60
2018-12-07T06:49:20.684Z,11.70
2018-12-07T06:51:55.047Z,11.60
2018-12-07T06:54:29.303Z,11.60
2018-12-07T06:56:57.624Z,11.50
2018-12-07T06:59:25.988Z,11.50
2018-12-07T07:01:59.938Z,11.60
2018-12-07T07:04:28.342Z,11.60
2018-12-07T07:06:56.675Z,11.60
2018-12-07T07:09:25.046Z,11.50
2018-12-07T07:14:52.454Z,11.60
2018-12-07T07:17:20.798Z,11.60
2018-12-07T07:20:07.210Z,11.60
2018-12-07T07:22:51.576Z,11.60
2018-12-07T07:25:23.074Z,11.50
2018-12-07T07:30:54.243Z,11.50
2018-12-07T07:33:22.590Z,11.40
2018-12-07T07:35:54.302Z,11.40
2018-12-07T07:38:28.916Z,11.40
2018-12-07T07:41:02.657Z,11.40
2018-12-07T07:43:34.358Z,11.50
2018-12-07T07:46:08.959Z,11.40
2018-12-07T07:48:40.945Z,11.40
2018-12-07T07:54:15.209Z,11.30
2018-12-07T07:56:55.667Z,11.30
2018-12-07T07:59:27.055Z,11.10
2018-12-07T08:02:05.505Z,11.30
2018-12-07T08:07:39.663Z,11.20
2018-12-07T08:13:01.438Z,11.30
2018-12-07T08:18:29.244Z,11.20
2018-12-07T08:21:05.788Z,11.20
2018-12-07T08:26:33.608Z,11.30
2018-12-07T08:29:05.692Z,11.30
2018-12-07T08:31:37.829Z,11.40
2018-12-07T08:34:13.430Z,11.40
2018-12-07T08:36:51.362Z,11.40
2018-12-07T08:39:26.499Z,11.40
2018-12-07T08:42:06.804Z,11.40
2018-12-07T08:44:34.708Z,11.50
2018-12-07T08:50:07.925Z,11.50
2018-12-07T08:52:37.184Z,11.50
2018-12-07T08:55:17.794Z,11.50
2018-12-07T09:06:57.500Z,11.40
2018-12-07T09:09:27.277Z,11.40
2018-12-07T09:12:01.845Z,11.20
2018-12-07T09:14:33.619Z,11.40
2018-12-07T09:17:08.458Z,11.30
2018-12-07T09:19:43.051Z,11.30
2018-12-07T09:22:17.323Z,11.30
2018-12-07T09:24:46.530Z,11.30
2018-12-07T09:27:20.821Z,11.20
2018-12-07T09:29:54.866Z,11.20
2018-12-07T09:32:26.657Z,11.40
2018-12-07T09:35:00.917Z,11.40
2018-12-07T09:37:29.264Z,11.50
2018-12-07T09:40:01.140Z,11.50
2018-12-07T09:45:33.200Z,11.40
2018-12-07T09:48:05.316Z,11.60
2018-12-07T09:53:34.399Z,11.60
2018-12-07T09:59:08.769Z,11.60
2018-12-07T10:01:56.166Z,11.60
2018-12-07T10:04:44.893Z,11.60
2018-12-07T10:07:33.671Z,11.60
2018-12-07T10:10:07.630Z,11.60
2018-12-07T10:12:42.421Z,11.50
2018-12-07T10:18:13.334Z,11.70
2018-12-07T10:20:48.774Z,11.70
2018-12-07T10:23:22.725Z,11.80
2018-12-07T10:25:54.765Z,12.00
2018-12-07T10:30:58.382Z,11.90
2018-12-07T10:33:39.164Z,11.90
2018-12-07T10:36:09.491Z,12.00
2018-12-07T10:38:37.853Z,12.00
2018-12-07T10:41:06.196Z,12.00
2018-12-07T10:43:39.981Z,11.90
2018-12-07T10:52:06.611Z,12.00
2018-12-07T10:54:47.281Z,11.90
2018-12-07T11:00:25.603Z,11.90
2018-12-07T11:03:09.594Z,11.90
2018-12-07T11:08:46.979Z,11.80
2018-12-07T11:11:27.058Z,11.80
2018-12-07T11:14:06.991Z,11.90
2018-12-07T11:16:46.647Z,11.90
2018-12-07T11:19:20.451Z,11.80
2018-12-07T11:21:55.885Z,11.90
2018-12-07T11:24:33.202Z,11.70
2018-12-07T11:27:11.837Z,11.80
2018-12-07T11:29:58.154Z,11.80
2018-12-07T11:32:46.775Z,11.90
2018-12-07T11:35:30.459Z,11.80
2018-12-07T11:38:02.012Z,11.90
2018-12-07T11:40:32.240Z,11.70
2018-12-07T11:43:02.359Z,11.80
2018-12-07T11:45:32.089Z,11.80
2018-12-07T11:48:19.249Z,11.90
2018-12-07T11:50:55.445Z,11.70
2018-12-07T11:53:29.235Z,11.70
2018-12-07T11:59:04.133Z,11.80
2018-12-07T12:01:36.011Z,11.80
2018-12-07T12:04:07.966Z,11.60
2018-12-07T12:06:40.099Z,11.60
2018-12-07T12:09:16.545Z,11.70
2018-12-07T12:11:51.376Z,11.60
2018-12-07T12:14:23.041Z,11.70
2018-12-07T12:16:56.926Z,11.70
2018-12-07T12:19:28.493Z,11.60
2018-12-07T12:22:02.718Z,11.60
2018-12-07T12:24:34.428Z,11.60
2018-12-07T12:27:08.281Z,11.60
2018-12-07T12:29:54.691Z,11.60
2018-12-07T12:32:28.909Z,11.60
2018-12-07T12:35:02.665Z,11.60
2018-12-07T12:37:34.723Z,11.40
2018-12-07T12:43:09.040Z,11.30
2018-12-07T12:45:51.479Z,11.30
2018-12-07T12:48:23.867Z,11.30
2018-12-07T12:50:59.474Z,11.20
2018-12-07T12:53:34.180Z,11.20
2018-12-07T12:56:10.807Z,11.30
2018-12-07T12:58:42.503Z,11.20
2018-12-07T13:01:14.589Z,11.30
2018-12-07T13:03:55.205Z,11.20
2018-12-07T13:06:25.267Z,11.20
2018-12-07T13:08:57.376Z,11.20
2018-12-07T13:11:29.577Z,11.10
2018-12-07T13:13:59.533Z,11.10
2018-12-07T13:16:34.127Z,11.10
2018-12-07T13:19:25.515Z,11.00
2018-12-07T13:21:53.865Z,11.10
2018-12-07T13:24:25.185Z,11.00
2018-12-07T13:29:59.897Z,10.90
2018-12-07T13:32:31.393Z,11.10
2018-12-07T13:35:06.086Z,11.10
2018-12-07T13:37:55.413Z,11.10
2018-12-07T13:40:27.284Z,11.10
2018-12-07T13:43:07.853Z,11.20
2018-12-07T13:45:39.905Z,11.10
2018-12-07T13:48:27.205Z,11.00
2018-12-07T13:50:59.014Z,11.10
2018-12-07T13:53:31.440Z,11.20
2018-12-07T13:56:16.180Z,11.20
2018-12-07T14:01:48.054Z,11.30
2018-12-07T14:04:31.264Z,11.30
2018-12-07T14:07:05.782Z,11.20
2018-12-07T14:09:37.878Z,11.30
2018-12-07T14:15:17.865Z,11.20
2018-12-07T14:17:52.264Z,11.30
2018-12-07T14:20:24.307Z,11.30
2018-12-07T14:22:58.326Z,11.40
2018-12-07T14:25:29.717Z,11.30
2018-12-07T14:28:04.232Z,11.30
2018-12-07T14:30:36.531Z,11.20
2018-12-07T14:33:28.002Z,11.30
2018-12-07T14:39:06.868Z,11.20
2018-12-07T14:41:35.572Z,11.30
2018-12-07T14:44:09.647Z,11.20
2018-12-07T14:46:45.713Z,11.20
2018-12-07T14:52:20.315Z,11.20
2018-12-07T14:57:50.843Z,11.30
2018-12-07T15:00:22.852Z,11.20
2018-12-07T15:02:55.209Z,11.40
2018-12-07T15:05:27.339Z,11.40
2018-12-07T15:07:59.625Z,11.30
2018-12-07T15:13:33.209Z,11.00
2018-12-07T15:16:05.238Z,11.10
2018-12-07T15:18:39.286Z,11.20
2018-12-07T15:21:24.281Z,11.20
2018-12-07T15:23:56.665Z,11.20
2018-12-07T15:29:31.694Z,11.10
2018-12-07T15:32:03.688Z,11.10
2018-12-07T15:34:39.860Z,11.20
2018-12-07T15:37:14.307Z,11.10
2018-12-07T15:45:46.249Z,11.10
2018-12-07T15:48:20.901Z,11.20
2018-12-07T15:51:01.805Z,11.20
2018-12-07T15:53:36.336Z,11.20
2018-12-07T15:56:09.044Z,11.10
2018-12-07T15:58:47.527Z,11.20
2018-12-07T16:01:36.422Z,11.20
2018-12-07T16:04:08.489Z,11.10
2018-12-07T16:06:46.517Z,11.10
2018-12-07T16:09:37.897Z,11.10
2018-12-07T16:12:06.409Z,11.20
2018-12-07T16:14:40.751Z,11.10
2018-12-07T16:17:21.295Z,11.10
2018-12-07T16:22:55.076Z,11.00
2018-12-07T16:28:29.254Z,11.10
2018-12-07T16:31:03.929Z,11.10
2018-12-07T16:36:44.314Z,11.10
2018-12-07T16:39:12.915Z,11.00
2018-12-07T16:41:46.936Z,11.10
2018-12-07T16:44:21.473Z,11.10
2018-12-07T16:49:55.489Z,11.10
2018-12-07T16:52:27.262Z,11.20
2018-12-07T16:57:58.929Z,11.00
2018-12-07T17:03:29.921Z,10.50
2018-12-07T17:06:00.121Z,10.30
2018-12-07T17:08:30.484Z,10.40
2018-12-07T17:11:00.691Z,10.40
2018-12-07T17:13:35.096Z,10.60
2018-12-07T17:16:10.163Z,10.60
2018-12-07T17:18:42.538Z,10.50
2018-12-07T17:24:12.900Z,10.60
2018-12-07T17:29:52.503Z,10.60
2018-12-07T17:32:26.960Z,10.50
2018-12-07T17:35:01.836Z,10.60
2018-12-07T17:37:39.769Z,10.60
2018-12-07T17:40:08.571Z,10.60
2018-12-07T17:42:42.516Z,10.50
2018-12-07T17:45:11.271Z,10.60
2018-12-07T17:47:48.357Z,10.60
2018-12-07T17:50:31.360Z,10.50
2018-12-07T17:53:06.112Z,10.50
2018-12-07T17:55:47.362Z,10.40
2018-12-07T17:58:21.796Z,10.30
2018-12-07T18:00:56.506Z,10.30
2018-12-07T18:03:31.325Z,10.30
2018-12-07T18:06:05.860Z,10.40
2018-12-07T18:08:34.450Z,10.50
2018-12-07T18:11:09.083Z,10.40
2018-12-07T18:13:39.366Z,10.30
2018-12-07T18:19:01.220Z,10.40
2018-12-07T18:21:29.656Z,10.40
2018-12-07T18:24:00.070Z,10.40
2018-12-07T18:29:35.335Z,10.40
2018-12-07T18:32:09.990Z,10.30
2018-12-07T18:34:40.419Z,10.30
2018-12-07T18:37:14.622Z,10.30
2018-12-07T18:42:45.481Z,10.30
2018-12-07T18:48:19.875Z,10.60
2018-12-07T18:50:52.010Z,10.40
2018-12-07T18:53:20.463Z,10.40
2018-12-07T18:55:55.255Z,10.50
2018-12-07T18:58:26.919Z,10.40
2018-12-07T19:00:55.531Z,10.50
2018-12-07T19:06:24.521Z,10.40
2018-12-07T19:08:58.808Z,10.40
2018-12-07T19:11:37.896Z,10.30
2018-12-07T19:14:06.606Z,10.40
2018-12-07T19:19:41.312Z,10.30
2018-12-07T19:22:09.799Z,10.40
2018-12-07T19:24:58.685Z,10.50
2018-12-07T19:30:26.956Z,10.40
2018-12-07T19:32:55.541Z,10.40
2018-12-07T19:35:23.953Z,10.40
2018-12-07T19:43:30.721Z,10.80
2018-12-07T19:46:12.093Z,10.70
2018-12-07T19:51:43.331Z,10.80
2018-12-07T19:54:15.182Z,10.90
2018-12-07T19:59:51.272Z,10.90
2018-12-07T20:11:18.837Z,10.80
2018-12-07T20:19:54.182Z,10.60
2018-12-07T20:22:22.670Z,10.60
2018-12-07T20:27:50.362Z,10.20
2018-12-07T20:30:21.945Z,10.20
2018-12-07T20:32:56.390Z,10.10
2018-12-07T20:35:24.847Z,10.00
2018-12-07T20:43:56.277Z,10.00
2018-12-07T20:46:28.698Z,9.90
2018-12-07T20:49:00.881Z,9.90
2018-12-07T20:51:35.152Z,9.90
2018-12-07T20:54:10.043Z,9.90
2018-12-07T20:56:40.512Z,9.90
2018-12-07T21:02:08.867Z,10.00
2018-12-07T21:04:43.030Z,9.90
2018-12-07T21:07:38.031Z,9.80
2018-12-07T21:11:49.950Z,9.80
2018-12-07T21:14:26.596Z,9.70
2018-12-07T21:17:34.338Z,9.60
2018-12-07T21:23:08.477Z,9.70
2018-12-07T21:25:43.407Z,9.50
2018-12-07T21:31:15.703Z,9.40
2018-12-07T21:33:56.748Z,9.40
2018-12-07T21:36:49.461Z,9.40
2018-12-07T21:39:48.590Z,9.40
2018-12-07T21:44:47.902Z,9.30
2018-12-07T21:47:24.449Z,9.30
2018-12-07T21:52:55.893Z,9.20
2018-12-07T21:55:28.346Z,9.20
2018-12-07T21:58:04.689Z,9.30
2018-12-07T22:00:50.287Z,9.20
2018-12-07T22:03:25.030Z,9.10
2018-12-07T22:05:56.668Z,9.20
2018-12-07T22:11:28.282Z,9.20
2018-12-07T22:14:00.143Z,9.30
2018-12-07T22:16:45.326Z,9.20
2018-12-07T22:19:16.906Z,9.20
2018-12-07T22:21:47.166Z,9.20
2018-12-07T22:24:19.220Z,9.20
2018-12-07T22:26:51.284Z,9.20
2018-12-07T22:29:21.398Z,9.30
2018-12-07T22:31:56.431Z,9.10
2018-12-07T22:34:25.009Z,9.20
2018-12-07T22:36:53.427Z,9.20
2018-12-07T22:42:24.426Z,8.90
2018-12-07T22:44:59.317Z,9.00
2018-12-07T22:47:43.773Z,9.00
2018-12-07T22:50:13.740Z,9.00
2018-12-07T22:52:53.642Z,8.90
2018-12-07T22:55:27.603Z,8.90
2018-12-07T22:58:01.619Z,8.70
2018-12-07T23:00:35.751Z,8.80
2018-12-07T23:03:07.481Z,8.80
2018-12-07T23:05:46.094Z,8.80
2018-12-07T23:08:15.727Z,8.80
2018-12-07T23:10:49.512Z,8.70
2018-12-07T23:13:39.988Z,8.70
2018-12-07T23:16:11.553Z,8.60
2018-12-07T23:18:41.854Z,8.50
2018-12-07T23:21:14.102Z,8.60
2018-12-07T23:23:46.330Z,8.60
2018-12-07T23:26:18.624Z,8.70
2018-12-07T23:28:50.903Z,8.70
2018-12-07T23:31:26.542Z,8.70
2018-12-07T23:34:04.651Z,8.70
2018-12-07T23:36:36.137Z,8.60
2018-12-07T23:39:08.466Z,8.70
2018-12-07T23:47:04.608Z,8.60
2018-12-07T23:49:38.800Z,8.60
2018-12-07T23:52:12.971Z,8.60
2018-12-07T23:54:53.985Z,8.70
2018-12-07T23:57:28.667Z,8.60
